Csl Welland — CFK5151 — position and weather

sailwx.info

Track history (hours):
 
Tides and Currents Weather Stations Pressure Air Temp Water Temp Dewpoint Dewpoint Depression Visibility Wind Speed Wind Dir Waves Ship Positions

Csl Welland

Last reported at 2018-Jun-19 13:45 UTC. Time now 2018-Jun-23 07:41 UTC.
Position N 45°18' W 073°56'.

Length 226 m.

MMSI: 316000808.

Date/timePositionNaut miles runAvg speedWind from/ knotsBaromVisibWave heightAir tempDewpointWater temp
2018-Jun-19 13:45N 45°18' W 073°56'1 2.1
2018-Jun-19 13:30N 45°18' W 073°56'0 0.9
2018-Jun-19 13:00N 45°19' W 073°55'0 0.8
2018-Jun-19 12:30N 45°19' W 073°55'1 2.7
2018-Jun-19 11:59N 45°20' W 073°54'510.2
2018-Jun-19 11:30N 45°23' W 073°48'5 9.3
2018-Jun-19 11:01N 45°25' W 073°42'3 5.7
2018-Jun-19 10:31N 45°24' W 073°38'2 4.0
2018-Jun-19 10:00N 45°24' W 073°35'1 2.2
2018-Jun-19 09:31N 45°24' W 073°34'0 0.8
2018-Jun-19 09:00N 45°24' W 073°33'1 1.2
2018-Jun-19 08:31N 45°24' W 073°32'1 2.7
2018-Jun-19 08:00N 45°25' W 073°31'3 4.8
2018-Jun-19 07:27N 45°28' W 073°30'2 4.7
2018-Jun-19 07:00N 45°30' W 073°31'0 0.6
2018-Jun-19 06:30N 45°30' W 073°31'17 7.4
2018-Jun-19 04:14N 45°46' W 073°23'2 9.7
2018-Jun-19 04:00N 45°47' W 073°21'5 9.9
2018-Jun-19 03:30N 45°51' W 073°16'5 9.5
2018-Jun-19 03:00N 45°55' W 073°13'5 9.7
2018-Jun-19 02:30N 45°60' W 073°11'4 8.8
2018-Jun-19 02:00N 46°03' W 073°07'92 9.1
2018-Jun-18 15:55N 46°49' W 071°12'0 0.2
2018-Jun-18 13:04N 46°49' W 071°12'0 0.0
2018-Jun-18 12:37N 46°49' W 071°12'0 0.0
2018-Jun-18 12:28N 46°49' W 071°12'0 0.0
2018-Jun-18 11:58N 46°49' W 071°12'0 0.0
2018-Jun-18 11:25N 46°49' W 071°12'0 0.0
2018-Jun-18 03:19N 46°49' W 071°12'0 0.0
2018-Jun-18 00:22N 46°49' W 071°12'0 0.0
2018-Jun-17 22:52N 46°49' W 071°12'0 0.0
2018-Jun-17 17:31N 46°49' W 071°12'0 0.0
2018-Jun-17 17:19N 46°49' W 071°12'0 0.0
2018-Jun-17 13:10N 46°49' W 071°12'0 0.0
2018-Jun-17 12:52N 46°49' W 071°12'0 0.0
2018-Jun-16 23:45N 46°49' W 071°12'0 0.0
2018-Jun-16 23:30N 46°49' W 071°12'0 0.0
2018-Jun-16 22:56N 46°49' W 071°12'0 0.0
2018-Jun-16 22:28N 46°49' W 071°12'0 0.0
2018-Jun-16 21:46N 46°49' W 071°12'0 0.0
2018-Jun-16 20:58N 46°49' W 071°12'0 0.0
2018-Jun-16 20:29N 46°49' W 071°12'0 0.0
2018-Jun-16 20:00N 46°49' W 071°12'0 0.0
2018-Jun-16 19:19N 46°49' W 071°12'0 0.0
2018-Jun-16 18:59N 46°49' W 071°12'1 2.2
2018-Jun-16 18:30N 46°50' W 071°11'1 0.2
2018-Jun-16 11:49N 46°51' W 071°10'0 0.4
2018-Jun-16 11:22N 46°51' W 071°10'0 0.1
2018-Jun-16 10:39N 46°51' W 071°10'0 0.5
2018-Jun-16 10:29N 46°51' W 071°10'0 0.3
2018-Jun-16 10:00N 46°51' W 071°10'0 0.2
2018-Jun-16 09:12N 46°51' W 071°09'0 0.1
2018-Jun-16 08:58N 46°51' W 071°09'0 0.0
2018-Jun-16 08:30N 46°51' W 071°09'0 0.1
2018-Jun-16 06:40N 46°51' W 071°09'0 0.4
2018-Jun-16 06:26N 46°51' W 071°09'2 4.5
2018-Jun-16 05:58N 46°49' W 071°11'9012.0
2018-Jun-15 22:29N 46°04' W 073°04'810.4
2018-Jun-15 21:44N 45°58' W 073°12'313.2
2018-Jun-15 21:30N 45°55' W 073°13'713.1
2018-Jun-15 21:01N 45°50' W 073°18'22 6.9
2018-Jun-15 17:47N 45°29' W 073°31'3 3.0
2018-Jun-15 16:48N 45°26' W 073°30'2 5.6
2018-Jun-15 16:26N 45°25' W 073°32'2 3.6
2018-Jun-15 16:01N 45°24' W 073°34'4 2.8
2018-Jun-15 14:35N 45°25' W 073°40'1 5.7
2018-Jun-15 14:29N 45°25' W 073°40'3 7.0
2018-Jun-15 14:00N 45°24' W 073°45'611.4
2018-Jun-15 13:30N 45°21' W 073°52'3 6.5
2018-Jun-15 13:00N 45°19' W 073°55'0 0.1
2018-Jun-15 12:30N 45°19' W 073°55'1 1.3
2018-Jun-15 11:52N 45°18' W 073°56'0 0.6
2018-Jun-15 11:30N 45°18' W 073°56'  
2018-Jun-12 00:57N 45°30' W 083°19'612.2
2018-Jun-12 00:28N 45°34' W 083°25'612.3
2018-Jun-11 23:59N 45°39' W 083°31'812.1
2018-Jun-11 23:19N 45°44' W 083°39'  
Track history (hours):
 
Tides and Currents Weather Stations Pressure Air Temp Water Temp Dewpoint Dewpoint Depression Visibility Wind Speed Wind Dir Waves Ship Positions

Csl Welland

Last reported at 2018-Jun-19 13:45 UTC. Time now 2018-Jun-23 07:41 UTC.
Position N 45°18' W 073°56'.

Length 226 m.

MMSI: 316000808.

Date/timePositionNaut miles runAvg speedWind from/ knotsBaromVisibWave heightAir tempDewpointWater temp
2018-Jun-19 13:45N 45°18' W 073°56'1 2.1
2018-Jun-19 13:30N 45°18' W 073°56'0 0.9
2018-Jun-19 13:00N 45°19' W 073°55'0 0.8
2018-Jun-19 12:30N 45°19' W 073°55'1 2.7
2018-Jun-19 11:59N 45°20' W 073°54'510.2
2018-Jun-19 11:30N 45°23' W 073°48'5 9.3
2018-Jun-19 11:01N 45°25' W 073°42'3 5.7
2018-Jun-19 10:31N 45°24' W 073°38'2 4.0
2018-Jun-19 10:00N 45°24' W 073°35'1 2.2
2018-Jun-19 09:31N 45°24' W 073°34'0 0.8
2018-Jun-19 09:00N 45°24' W 073°33'1 1.2
2018-Jun-19 08:31N 45°24' W 073°32'1 2.7
2018-Jun-19 08:00N 45°25' W 073°31'3 4.8
2018-Jun-19 07:27N 45°28' W 073°30'2 4.7
2018-Jun-19 07:00N 45°30' W 073°31'0 0.6
2018-Jun-19 06:30N 45°30' W 073°31'17 7.4
2018-Jun-19 04:14N 45°46' W 073°23'2 9.7
2018-Jun-19 04:00N 45°47' W 073°21'5 9.9
2018-Jun-19 03:30N 45°51' W 073°16'5 9.5
2018-Jun-19 03:00N 45°55' W 073°13'5 9.7
2018-Jun-19 02:30N 45°60' W 073°11'4 8.8
2018-Jun-19 02:00N 46°03' W 073°07'92 9.1
2018-Jun-18 15:55N 46°49' W 071°12'0 0.2
2018-Jun-18 13:04N 46°49' W 071°12'0 0.0
2018-Jun-18 12:37N 46°49' W 071°12'0 0.0
2018-Jun-18 12:28N 46°49' W 071°12'0 0.0
2018-Jun-18 11:58N 46°49' W 071°12'0 0.0
2018-Jun-18 11:25N 46°49' W 071°12'0 0.0
2018-Jun-18 03:19N 46°49' W 071°12'0 0.0
2018-Jun-18 00:22N 46°49' W 071°12'0 0.0
2018-Jun-17 22:52N 46°49' W 071°12'0 0.0
2018-Jun-17 17:31N 46°49' W 071°12'0 0.0
2018-Jun-17 17:19N 46°49' W 071°12'0 0.0
2018-Jun-17 13:10N 46°49' W 071°12'0 0.0
2018-Jun-17 12:52N 46°49' W 071°12'0 0.0
2018-Jun-16 23:45N 46°49' W 071°12'0 0.0
2018-Jun-16 23:30N 46°49' W 071°12'0 0.0
2018-Jun-16 22:56N 46°49' W 071°12'0 0.0
2018-Jun-16 22:28N 46°49' W 071°12'0 0.0
2018-Jun-16 21:46N 46°49' W 071°12'0 0.0
2018-Jun-16 20:58N 46°49' W 071°12'0 0.0
2018-Jun-16 20:29N 46°49' W 071°12'0 0.0
2018-Jun-16 20:00N 46°49' W 071°12'0 0.0
2018-Jun-16 19:19N 46°49' W 071°12'0 0.0
2018-Jun-16 18:59N 46°49' W 071°12'1 2.2
2018-Jun-16 18:30N 46°50' W 071°11'1 0.2
2018-Jun-16 11:49N 46°51' W 071°10'0 0.4
2018-Jun-16 11:22N 46°51' W 071°10'0 0.1
2018-Jun-16 10:39N 46°51' W 071°10'0 0.5
2018-Jun-16 10:29N 46°51' W 071°10'0 0.3
2018-Jun-16 10:00N 46°51' W 071°10'0 0.2
2018-Jun-16 09:12N 46°51' W 071°09'0 0.1
2018-Jun-16 08:58N 46°51' W 071°09'0 0.0
2018-Jun-16 08:30N 46°51' W 071°09'0 0.1
2018-Jun-16 06:40N 46°51' W 071°09'0 0.4
2018-Jun-16 06:26N 46°51' W 071°09'2 4.5
2018-Jun-16 05:58N 46°49' W 071°11'9012.0
2018-Jun-15 22:29N 46°04' W 073°04'810.4
2018-Jun-15 21:44N 45°58' W 073°12'313.2
2018-Jun-15 21:30N 45°55' W 073°13'713.1
2018-Jun-15 21:01N 45°50' W 073°18'22 6.9
2018-Jun-15 17:47N 45°29' W 073°31'3 3.0
2018-Jun-15 16:48N 45°26' W 073°30'2 5.6
2018-Jun-15 16:26N 45°25' W 073°32'2 3.6
2018-Jun-15 16:01N 45°24' W 073°34'4 2.8
2018-Jun-15 14:35N 45°25' W 073°40'1 5.7
2018-Jun-15 14:29N 45°25' W 073°40'3 7.0
2018-Jun-15 14:00N 45°24' W 073°45'611.4
2018-Jun-15 13:30N 45°21' W 073°52'3 6.5
2018-Jun-15 13:00N 45°19' W 073°55'0 0.1
2018-Jun-15 12:30N 45°19' W 073°55'1 1.3
2018-Jun-15 11:52N 45°18' W 073°56'0 0.6
2018-Jun-15 11:30N 45°18' W 073°56'  
2018-Jun-12 00:57N 45°30' W 083°19'612.2
2018-Jun-12 00:28N 45°34' W 083°25'612.3
2018-Jun-11 23:59N 45°39' W 083°31'812.1
2018-Jun-11 23:19N 45°44' W 083°39'  

Dump ship's entire track history